Campanya Meteocatpedra
Centenari de l'SMC: 100 anys mirant el cel

Dades de l'estació automàtica Massoteres

?
?

Resum diari

23:00 TU
Dades diàries de l'estació meteorològica
Temperatura mitjana 16.3 °C
Temperatura màxima 23.7 °C 15:51 TU
Temperatura mínima 11.2 °C 6:00 TU
Humitat relativa mitjana 63%
Precipitació acumulada 0.0 mm
Ratxa màxima del vent (10 m) 38.9 km/h - 238º 16:04 TU
Irradiació solar global 20.6 MJ/m2

El tram horari està expressat en Temps Universal (TU). Cal sumar una hora en horari d'hivern i dues en horari d'estiu per passar a l'hora oficial.

Massoteres

Metadades estació meteorològica
Municipi Massoteres
Comarca Segarra
Altitud 513 m
Data alta 17.05.2017
Estat actual Operativa
Dades de període
Període
TU
TM
°C
TX
°C
TN
°C
HRM
%
PPT
mm
VVM (10 m)
km/h
DVM (10 m)
graus
VVX (10 m)
km/h
RS
W/m2
00:00 - 00:30 13.2 13.5 12.9 78 0.0 3.2 217 6.1 0
00:30 - 01:00 13.3 14.0 12.7 78 0.0 5.4 217 10.4 0
01:00 - 01:30 13.9 14.0 13.6 76 0.0 9.7 230 14.8 0
01:30 - 02:00 13.6 13.9 13.2 78 0.0 10.1 220 14.8 0
02:00 - 02:30 13.1 13.2 12.8 80 0.0 10.8 241 16.2 0
02:30 - 03:00 12.6 12.8 12.3 82 0.0 9.4 236 12.6 0
03:00 - 03:30 12.4 12.6 12.2 83 0.0 9.4 231 13.0 0
03:30 - 04:00 12.0 12.5 11.8 85 0.0 10.1 229 14.8 0
04:00 - 04:30 12.3 12.6 11.8 83 0.0 8.6 236 14.4 0
04:30 - 05:00 11.9 12.0 11.7 85 0.0 8.3 251 13.3 0
05:00 - 05:30 11.7 11.8 11.5 86 0.0 7.6 238 11.9 0
05:30 - 06:00 11.5 11.6 11.2 87 0.0 7.9 241 11.9 6
06:00 - 06:30 11.4 11.5 11.2 88 0.0 9.7 234 14.0 26
06:30 - 07:00 12.0 12.5 11.3 86 0.0 11.2 240 18.4 130
07:00 - 07:30 12.9 13.3 12.4 82 0.0 14.0 246 23.0 251
07:30 - 08:00 13.8 14.5 13.4 79 0.0 14.8 251 23.0 386
08:00 - 08:30 14.8 15.3 14.4 74 0.0 17.3 257 24.8 459
08:30 - 09:00 15.5 16.2 14.9 70 0.0 15.8 253 25.6 500
09:00 - 09:30 15.9 16.4 15.2 69 0.0 14.4 259 23.8 447
09:30 - 10:00 16.7 17.2 16.0 66 0.0 16.6 258 27.0 572
10:00 - 10:30 17.9 18.5 17.1 61 0.0 19.1 251 32.8 745
10:30 - 11:00 18.5 19.6 17.9 59 0.0 20.5 251 31.0 770
11:00 - 11:30 19.4 20.1 19.0 55 0.0 21.6 262 32.0 792
11:30 - 12:00 20.3 20.7 20.0 51 0.0 20.5 257 31.3 803
12:00 - 12:30 21.1 21.5 20.6 48 0.0 20.2 275 30.2 800
12:30 - 13:00 21.6 21.9 21.2 45 0.0 20.9 261 32.4 779
13:00 - 13:30 22.0 22.5 21.5 45 0.0 19.8 245 33.1 741
13:30 - 14:00 22.3 22.8 21.8 42 0.0 14.0 245 26.6 708
14:00 - 14:30 22.8 23.4 22.3 40 0.0 14.0 247 29.5 631
14:30 - 15:00 23.1 23.6 22.7 39 0.0 18.4 243 31.0 554
15:00 - 15:30 23.1 23.6 22.8 36 0.0 18.4 258 31.0 489
15:30 - 16:00 23.1 23.7 22.7 30 0.0 23.0 251 37.8 406
16:00 - 16:30 22.3 22.8 21.9 29 0.0 25.9 244 38.9 278
16:30 - 17:00 21.7 22.2 21.0 30 0.0 24.8 253 35.6 182
17:00 - 17:30 20.2 20.9 19.7 36 0.0 21.2 256 36.7 45
17:30 - 18:00 19.4 19.7 19.0 40 0.0 15.8 255 23.0 7
18:00 - 18:30 18.4 19.0 18.0 44 0.0 17.3 273 26.6 0
18:30 - 19:00 17.6 18.1 17.0 47 0.0 8.3 295 15.8 0
19:00 - 19:30 16.3 17.0 15.7 53 0.0 5.4 276 11.5 0
19:30 - 20:00 15.6 15.8 15.4 58 0.0 2.5 255 6.5 0
20:00 - 20:30 14.2 15.4 13.5 64 0.0 5.4 151 11.2 0
20:30 - 21:00 14.1 14.9 13.4 62 0.0 6.8 83 10.4 0
21:00 - 21:30 14.1 14.5 13.8 60 0.0 8.6 108 15.5 0
21:30 - 22:00 13.7 13.8 13.4 66 0.0 9.0 115 12.2 0
22:00 - 22:30 13.7 14.0 13.3 73 0.0 10.8 139 14.8 0
22:30 - 23:00 13.2 13.6 12.9 67 0.0 9.0 174 16.2 0
23:00 - 23:30 12.7 13.0 12.2 65 0.0 5.8 216 8.6 0

Les dades en taronja només han passat un control de qualitat automàtic. Resta pendent la seva validació definitiva.